Time;durP1;ratioP1;P1;durP2;ratioP2;P2;SDS_P1;SDS_P2;PMS_P1;PMS_P2;Temp;Humidity;BMP_temperature;BMP_pressure;BME280_temperature;BME280_humidity;BME280_pressure;Samples;Min_cycle;Max_cycle;Signal;HPM_P1;HPM_P2
2022/05/28 17:18:23;;;;;;;2.63;0.88;;;;;;;;;;5119779;27;1145120;-73
2022/05/28 17:20:48;;;;;;;2.42;0.88;;;;;;;;;;5132988;27;20105;-78
2022/05/28 17:23:13;;;;;;;4.90;1.20;;;;;;;;;;5121994;27;20119;-77
2022/05/28 17:25:39;;;;;;;3.13;0.90;;;;;;;;;;5111369;28;20027;-77
2022/05/28 17:28:05;;;;;;;3.00;1.02;;;;;;;;;;5110303;28;20253;-77
2022/05/28 17:30:34;;;;;;;3.22;0.98;;;;;;;;;;5841549;22;20054;-77
2022/05/28 17:33:02;;;;;;;3.05;0.95;;;;;;;;;;5030708;28;20390;-76
2022/05/28 17:35:30;;;;;;;3.30;1.25;;;;;;;;;;5030596;28;20030;-76
2022/05/28 17:37:55;;;;;;;2.90;0.90;;;;;;;;;;5030419;28;20014;-76
2022/05/28 17:40:20;;;;;;;4.50;1.48;;;;;;;;;;5030734;28;20021;-77
2022/05/28 17:42:49;;;;;;;3.40;0.95;;;;;;;;;;5030368;28;20021;-77
2022/05/28 17:45:16;;;;;;;2.17;1.00;;;;;;;;;;5030513;28;20045;-76
2022/05/28 17:47:46;;;;;;;5.45;1.15;;;;;;;;;;5030570;28;20100;-76
2022/05/28 17:50:12;;;;;;;3.30;1.10;;;;;;;;;;5030445;28;20549;-76
2022/05/28 17:52:38;;;;;;;2.65;1.00;;;;;;;;;;5030213;28;20065;-76
2022/05/28 17:55:04;;;;;;;3.85;1.20;;;;;;;;;;5030298;28;20046;-77
2022/05/28 17:57:29;;;;;;;3.97;1.33;;;;;;;;;;5030851;28;20026;-74
2022/05/28 17:59:55;;;;;;;4.90;1.20;;;;;;;;;;5012356;28;20083;-76
2022/05/28 18:02:33;;;;;;;5.67;1.00;;;;;;;;;;5030091;28;20065;-76
2022/05/28 18:04:59;;;;;;;4.82;1.48;;;;;;;;;;5030180;28;20692;-77
2022/05/28 18:07:25;;;;;;;3.58;1.10;;;;;;;;;;5012121;28;20057;-76
2022/05/28 18:09:51;;;;;;;3.63;1.17;;;;;;;;;;5030141;28;20092;-76
2022/05/28 18:12:16;;;;;;;4.50;1.30;;;;;;;;;;5030630;28;20030;-75
2022/05/28 18:14:42;;;;;;;2.67;0.90;;;;;;;;;;5030113;28;20037;-77
2022/05/28 18:17:12;;;;;;;4.18;1.10;;;;;;;;;;5029653;28;20022;-77
2022/05/28 18:19:40;;;;;;;4.10;1.52;;;;;;;;;;5029676;28;20075;-76
2022/05/28 18:22:06;;;;;;;6.43;1.20;;;;;;;;;;5029795;28;20386;-77
2022/05/28 18:24:35;;;;;;;4.35;1.13;;;;;;;;;;5029779;28;20389;-76
2022/05/28 18:27:03;;;;;;;2.88;0.90;;;;;;;;;;5029818;28;20029;-76
2022/05/28 18:29:28;;;;;;;5.25;1.23;;;;;;;;;;5018417;28;20172;-76
2022/05/28 18:31:53;;;;;;;5.90;1.40;;;;;;;;;;4998453;28;20061;-77
2022/05/28 18:34:19;;;;;;;2.20;1.10;;;;;;;;;;5016504;28;20309;-76
2022/05/28 18:36:44;;;;;;;4.17;1.20;;;;;;;;;;5016381;28;20313;-76
2022/05/28 18:39:15;;;;;;;5.13;1.15;;;;;;;;;;5016400;28;20262;-77
2022/05/28 18:41:40;;;;;;;3.47;1.00;;;;;;;;;;5017177;28;20414;-78
2022/05/28 18:44:08;;;;;;;1.88;0.90;;;;;;;;;;5016271;28;20033;-76
2022/05/28 18:46:35;;;;;;;7.15;1.00;;;;;;;;;;5016146;28;20026;-77
2022/05/28 18:49:00;;;;;;;2.20;0.93;;;;;;;;;;4998519;28;20034;-77
2022/05/28 18:51:27;;;;;;;2.75;0.90;;;;;;;;;;5015929;28;20536;-77
2022/05/28 18:54:05;;;;;;;3.33;0.93;;;;;;;;;;5016516;28;20448;-77
2022/05/28 18:56:40;;;;;;;3.15;1.05;;;;;;;;;;4999879;28;20025;-77
2022/05/28 18:59:07;;;;;;;2.97;0.88;;;;;;;;;;5016724;28;20022;-77
2022/05/28 19:01:33;;;;;;;2.75;0.90;;;;;;;;;;5016597;28;20348;-76
2022/05/28 19:04:00;;;;;;;2.42;0.85;;;;;;;;;;4998407;28;20017;-77
2022/05/28 19:06:27;;;;;;;2.58;0.73;;;;;;;;;;5015903;28;20029;-79
2022/05/28 19:08:55;;;;;;;1.80;1.00;;;;;;;;;;5015986;28;20502;-79
2022/05/28 19:11:22;;;;;;;2.13;1.00;;;;;;;;;;5015546;28;20037;-77
2022/05/28 19:13:50;;;;;;;2.03;0.85;;;;;;;;;;5015544;28;20044;-77
2022/05/28 19:16:19;;;;;;;1.50;0.98;;;;;;;;;;5015976;28;20022;-76
2022/05/28 19:18:45;;;;;;;1.63;1.00;;;;;;;;;;5015811;28;20491;-78
2022/05/28 19:21:10;;;;;;;2.53;0.95;;;;;;;;;;4997754;28;20083;-77
2022/05/28 19:23:36;;;;;;;3.55;1.00;;;;;;;;;;5015343;28;20022;-76
2022/05/28 19:29:07;;;;;;;1.73;0.90;;;;;;;;;;4974526;28;20030;-76
2022/05/28 19:31:33;;;;;;;3.22;1.02;;;;;;;;;;4991232;28;20453;-76
2022/05/28 19:33:58;;;;;;;3.35;1.00;;;;;;;;;;4998421;28;20071;-77
2022/05/28 19:36:23;;;;;;;2.92;0.90;;;;;;;;;;5015109;28;20079;-78
2022/05/28 19:38:49;;;;;;;4.33;0.97;;;;;;;;;;5016919;28;20108;-77
2022/05/28 19:41:21;;;;;;;2.55;0.90;;;;;;;;;;4996578;28;20291;-77
2022/05/28 19:43:50;;;;;;;2.03;0.70;;;;;;;;;;5015054;28;20032;-76
2022/05/28 19:46:15;;;;;;;2.88;1.00;;;;;;;;;;5015486;28;20568;-78
2022/05/28 19:48:41;;;;;;;6.18;1.00;;;;;;;;;;5015518;28;20057;-78
2022/05/28 19:51:10;;;;;;;3.60;1.15;;;;;;;;;;5015060;28;20394;-78
2022/05/28 19:53:35;;;;;;;5.80;1.10;;;;;;;;;;5015796;28;20026;-78
2022/05/28 19:56:01;;;;;;;1.67;0.87;;;;;;;;;;5015213;28;20032;-77
2022/05/28 19:58:27;;;;;;;1.55;0.90;;;;;;;;;;5015476;28;20263;-77
2022/05/28 20:00:53;;;;;;;2.88;1.10;;;;;;;;;;5014936;28;20076;-77
2022/05/28 20:03:21;;;;;;;2.80;0.88;;;;;;;;;;4997008;28;20026;-77
2022/05/28 20:05:47;;;;;;;3.40;1.13;;;;;;;;;;5014603;28;20026;-75
2022/05/28 20:08:12;;;;;;;3.80;1.10;;;;;;;;;;4997105;28;20037;-77
2022/05/28 20:10:38;;;;;;;2.07;0.80;;;;;;;;;;5014690;28;20510;-77
2022/05/28 20:13:06;;;;;;;3.30;1.15;;;;;;;;;;4997231;28;20329;-77
2022/05/28 20:15:31;;;;;;;4.40;1.33;;;;;;;;;;5014935;28;20058;-77
2022/05/28 20:17:59;;;;;;;2.47;1.00;;;;;;;;;;5014016;28;20053;-77
2022/05/28 20:20:24;;;;;;;1.83;0.93;;;;;;;;;;5014340;28;20022;-76
2022/05/28 20:22:50;;;;;;;3.20;1.17;;;;;;;;;;5014641;28;20087;-77
2022/05/28 20:25:16;;;;;;;2.60;0.95;;;;;;;;;;5014219;28;20025;-77
2022/05/28 20:27:42;;;;;;;4.00;1.00;;;;;;;;;;5014555;28;20031;-79
2022/05/28 20:30:08;;;;;;;2.83;1.05;;;;;;;;;;5017148;28;20025;-79
2022/05/28 20:32:43;;;;;;;4.88;1.25;;;;;;;;;;5018779;28;20030;-79
2022/05/28 20:35:10;;;;;;;2.20;1.02;;;;;;;;;;5017103;28;20026;-79
2022/05/28 20:37:36;;;;;;;4.30;1.17;;;;;;;;;;5015598;28;20026;-77
2022/05/28 20:40:02;;;;;;;4.47;1.20;;;;;;;;;;5015258;28;20532;-79
2022/05/28 20:42:27;;;;;;;4.47;1.25;;;;;;;;;;5015985;28;20033;-76
2022/05/28 20:44:54;;;;;;;2.53;1.10;;;;;;;;;;5013670;28;20080;-76
2022/05/28 20:47:21;;;;;;;2.85;1.10;;;;;;;;;;4996023;28;20390;-76
2022/05/28 20:49:47;;;;;;;2.65;1.10;;;;;;;;;;4996018;28;20394;-76
2022/05/28 20:52:13;;;;;;;3.17;1.00;;;;;;;;;;5013272;28;20017;-77
2022/05/28 20:54:38;;;;;;;3.13;1.13;;;;;;;;;;5013931;28;20394;-76
2022/05/28 20:57:04;;;;;;;1.92;0.93;;;;;;;;;;4996044;28;20101;-76
2022/05/28 20:59:31;;;;;;;3.53;1.42;;;;;;;;;;5013890;28;20390;-76
2022/05/28 21:01:57;;;;;;;4.50;1.30;;;;;;;;;;4996284;28;20379;-77
2022/05/28 21:04:23;;;;;;;4.07;1.40;;;;;;;;;;5013390;28;20026;-76
2022/05/28 21:06:50;;;;;;;5.70;1.67;;;;;;;;;;4995739;28;20049;-75
2022/05/28 21:09:17;;;;;;;2.97;1.40;;;;;;;;;;5013724;28;20045;-77
2022/05/28 21:11:44;;;;;;;3.92;1.30;;;;;;;;;;5013611;28;20022;-76
2022/05/28 21:14:10;;;;;;;5.95;1.60;;;;;;;;;;4995910;28;20026;-76
2022/05/28 21:16:40;;;;;;;4.10;1.10;;;;;;;;;;4995847;28;20030;-76
2022/05/28 21:19:05;;;;;;;3.53;1.10;;;;;;;;;;5013715;28;20022;-76
2022/05/28 21:21:35;;;;;;;4.57;1.40;;;;;;;;;;5013302;28;20079;-78
2022/05/28 21:24:01;;;;;;;4.82;1.30;;;;;;;;;;4995806;28;20026;-76
2022/05/28 21:31:59;;;;;;;5.28;1.23;;;;;;;;;;5013570;28;20072;-76
2022/05/28 21:34:29;;;;;;;3.83;1.10;;;;;;;;;;5013360;28;20025;-76
2022/05/28 21:36:54;;;;;;;5.88;1.27;;;;;;;;;;4995747;28;20024;-76
2022/05/28 21:39:19;;;;;;;7.63;1.60;;;;;;;;;;5019174;28;20058;-76
2022/05/28 21:41:44;;;;;;;5.07;1.40;;;;;;;;;;5024002;28;20259;-75
2022/05/28 21:44:09;;;;;;;4.47;1.40;;;;;;;;;;5005203;28;20267;-75
2022/05/28 21:46:36;;;;;;;3.72;1.50;;;;;;;;;;5024037;28;20278;-75
2022/05/28 21:49:03;;;;;;;2.78;1.38;;;;;;;;;;5004629;28;20031;-75
2022/05/28 21:51:29;;;;;;;3.63;1.13;;;;;;;;;;5022755;28;20033;-75
2022/05/28 21:53:55;;;;;;;4.45;1.55;;;;;;;;;;5006300;28;20026;-75
2022/05/28 21:56:20;;;;;;;8.45;1.55;;;;;;;;;;5023960;28;20034;-76
2022/05/28 21:58:45;;;;;;;8.90;1.55;;;;;;;;;;5007944;28;20049;-76
2022/05/28 22:01:22;;;;;;;5.00;1.30;;;;;;;;;;5025142;28;20033;-75
2022/05/28 22:03:52;;;;;;;5.57;1.40;;;;;;;;;;5019186;28;20264;-76
2022/05/28 22:06:18;;;;;;;3.90;1.10;;;;;;;;;;5017235;28;20421;-76
2022/05/28 22:08:45;;;;;;;9.05;1.30;;;;;;;;;;5016605;28;20029;-76
2022/05/28 22:11:11;;;;;;;2.97;1.20;;;;;;;;;;5016948;28;20033;-77
2022/05/28 22:13:36;;;;;;;3.45;1.23;;;;;;;;;;5016428;28;20092;-76
2022/05/28 22:16:07;;;;;;;5.82;1.70;;;;;;;;;;5016427;28;20029;-76
2022/05/28 22:18:32;;;;;;;3.58;1.10;;;;;;;;;;5016878;28;20022;-77
2022/05/28 22:20:57;;;;;;;4.28;1.30;;;;;;;;;;5016736;28;20030;-76
2022/05/28 22:23:22;;;;;;;3.80;1.20;;;;;;;;;;5016248;28;20018;-75
2022/05/28 22:25:48;;;;;;;5.23;1.53;;;;;;;;;;5016537;28;20263;-75
2022/05/28 22:28:13;;;;;;;4.22;1.38;;;;;;;;;;4998582;28;20362;-74
2022/05/28 22:30:39;;;;;;;4.80;1.45;;;;;;;;;;5016087;28;20045;-74
2022/05/28 22:33:05;;;;;;;2.92;1.23;;;;;;;;;;5016183;28;20032;-75
2022/05/28 22:35:30;;;;;;;3.85;1.38;;;;;;;;;;5016692;28;20030;-74
2022/05/28 22:37:56;;;;;;;4.70;1.40;;;;;;;;;;5016045;28;20112;-75
2022/05/28 22:40:22;;;;;;;3.95;1.20;;;;;;;;;;5015961;28;20018;-75
2022/05/28 22:42:47;;;;;;;3.75;1.35;;;;;;;;;;4998376;28;20026;-76
2022/05/28 22:45:19;;;;;;;3.90;1.35;;;;;;;;;;5015852;28;20478;-75
2022/05/28 22:47:52;;;;;;;4.72;1.45;;;;;;;;;;4998233;28;20025;-76
2022/05/28 22:50:26;;;;;;;2.58;1.20;;;;;;;;;;4998227;28;20121;-76
2022/05/28 22:52:52;;;;;;;3.28;1.30;;;;;;;;;;5016408;28;20486;-75
2022/05/28 22:55:18;;;;;;;3.72;1.33;;;;;;;;;;5015982;28;20038;-75
2022/05/28 22:57:43;;;;;;;5.70;1.75;;;;;;;;;;5015982;28;20056;-75
2022/05/28 23:00:09;;;;;;;6.07;1.73;;;;;;;;;;4997275;28;20030;-76
2022/05/28 23:02:34;;;;;;;3.33;1.35;;;;;;;;;;5016179;28;20029;-77
2022/05/28 23:05:00;;;;;;;5.15;1.67;;;;;;;;;;5015805;28;20104;-76
2022/05/28 23:07:25;;;;;;;7.82;1.35;;;;;;;;;;5015812;28;20026;-77
2022/05/28 23:09:51;;;;;;;4.13;1.25;;;;;;;;;;5015746;28;20482;-77
2022/05/28 23:12:16;;;;;;;7.45;1.38;;;;;;;;;;5015486;28;20052;-76
2022/05/28 23:14:41;;;;;;;6.40;1.77;;;;;;;;;;5015577;28;20053;-76
2022/05/28 23:17:06;;;;;;;2.63;1.30;;;;;;;;;;5015345;28;20409;-76
2022/05/28 23:19:33;;;;;;;6.18;1.58;;;;;;;;;;5015697;28;20034;-75
2022/05/28 23:21:58;;;;;;;5.22;1.50;;;;;;;;;;5015353;28;20088;-75
2022/05/28 23:27:08;;;;;;;3.50;1.35;;;;;;;;;;5015628;28;20048;-75
2022/05/28 23:29:33;;;;;;;6.37;2.03;;;;;;;;;;5015090;28;20522;-75
2022/05/28 23:31:58;;;;;;;6.05;1.90;;;;;;;;;;5015010;28;20787;-76
2022/05/28 23:34:31;;;;;;;8.30;1.60;;;;;;;;;;5015867;28;20041;-75
2022/05/28 23:37:10;;;;;;;4.07;1.48;;;;;;;;;;5014988;28;20020;-75
2022/05/28 23:39:36;;;;;;;3.90;1.40;;;;;;;;;;5014921;28;20022;-75
2022/05/28 23:42:01;;;;;;;4.72;1.40;;;;;;;;;;5014832;28;20505;-75
2022/05/28 23:44:27;;;;;;;5.40;1.60;;;;;;;;;;4997133;28;20018;-75
2022/05/28 23:47:04;;;;;;;4.95;1.48;;;;;;;;;;5014628;28;20022;-75
2022/05/28 23:49:33;;;;;;;5.13;1.38;;;;;;;;;;5015286;28;20038;-76
2022/05/28 23:51:59;;;;;;;4.45;1.40;;;;;;;;;;5014618;28;20032;-75
2022/05/28 23:54:27;;;;;;;4.95;1.50;;;;;;;;;;5014619;28;20453;-75
2022/05/28 23:56:58;;;;;;;7.05;1.80;;;;;;;;;;4996971;28;20048;-75
2022/05/28 23:59:23;;;;;;;6.90;1.45;;;;;;;;;;4996951;28;20029;-75
